Time;durP1;ratioP1;P1;durP2;ratioP2;P2;SDS_P1;SDS_P2;PMS_P1;PMS_P2;Temp;Humidity;BMP_temperature;BMP_pressure;BME280_temperature;BME280_humidity;BME280_pressure;Samples;Min_cycle;Max_cycle;Signal;HPM_P1;HPM_P2
2023/03/14 05:22:21;;;;;;;9.25;2.22;;;12.60;71.80;;;;;;5605385;24;20055;-76
2023/03/14 05:24:47;;;;;;;11.50;2.22;;;12.60;71.90;;;;;;4768509;30;20146;-72
2023/03/14 05:27:13;;;;;;;7.72;1.85;;;12.70;73.00;;;;;;4762751;30;20508;-79
2023/03/14 05:29:39;;;;;;;10.30;2.00;;;12.80;72.40;;;;;;4753327;30;20127;-76
2023/03/14 05:32:05;;;;;;;11.35;2.22;;;13.00;72.00;;;;;;4770437;30;20131;-77
2023/03/14 05:34:30;;;;;;;11.45;1.98;;;13.20;71.80;;;;;;4768002;30;20334;-80
2023/03/14 05:36:56;;;;;;;9.07;2.05;;;13.50;71.20;;;;;;4758447;30;20052;-76
2023/03/14 05:39:23;;;;;;;9.68;2.35;;;13.80;70.70;;;;;;4754987;30;20080;-72
2023/03/14 05:41:48;;;;;;;13.07;2.55;;;14.00;70.30;;;;;;4754366;30;20086;-83
2023/03/14 05:44:14;;;;;;;12.13;2.88;;;14.20;70.40;;;;;;4769420;30;20059;-79
2023/03/14 05:46:40;;;;;;;14.10;2.03;;;14.50;70.70;;;;;;4759434;30;20371;-67
2023/03/14 05:49:06;;;;;;;9.48;1.90;;;14.60;70.10;;;;;;4768207;30;20452;-72
2023/03/14 05:51:31;;;;;;;11.48;1.52;;;14.80;70.10;;;;;;4757951;30;20063;-72
2023/03/14 05:53:57;;;;;;;10.05;1.98;;;14.90;69.70;;;;;;4771173;30;20528;-72
2023/03/14 05:56:23;;;;;;;15.65;2.28;;;14.90;69.50;;;;;;4775477;30;20055;-72
2023/03/14 05:58:48;;;;;;;14.73;1.92;;;15.00;69.80;;;;;;4775127;30;20051;-73
2023/03/14 06:01:14;;;;;;;17.23;2.30;;;15.00;70.00;;;;;;4774762;30;20367;-70
2023/03/14 06:03:40;;;;;;;17.13;3.00;;;15.00;70.00;;;;;;4774464;30;20486;-73
2023/03/14 06:06:06;;;;;;;13.98;2.53;;;15.00;70.00;;;;;;4773761;30;20495;-72
2023/03/14 06:08:32;;;;;;;21.38;2.60;;;15.10;70.00;;;;;;4775540;30;20044;-71
2023/03/14 06:10:58;;;;;;;24.67;3.55;;;15.20;69.70;;;;;;4774628;30;20043;-73
2023/03/14 06:13:24;;;;;;;24.88;2.83;;;15.30;70.20;;;;;;4774950;30;20059;-71
2023/03/14 06:15:49;;;;;;;27.00;3.22;;;15.40;69.80;;;;;;4774949;30;20074;-73
2023/03/14 06:18:15;;;;;;;17.80;2.03;;;15.50;69.40;;;;;;4775058;30;20341;-73
2023/03/14 06:20:41;;;;;;;11.38;1.92;;;15.60;68.90;;;;;;4774996;30;20059;-72
2023/03/14 06:23:07;;;;;;;15.48;2.22;;;15.60;68.50;;;;;;4788941;29;20078;-73
2023/03/14 06:25:34;;;;;;;16.25;2.45;;;15.70;68.30;;;;;;4810370;29;20360;-72
2023/03/14 06:28:00;;;;;;;15.80;2.47;;;15.80;68.30;;;;;;4810448;29;20055;-71
2023/03/14 06:30:26;;;;;;;18.23;2.05;;;15.80;67.60;;;;;;4810686;29;20083;-72
2023/03/14 06:32:52;;;;;;;20.27;2.67;;;15.90;68.10;;;;;;4811462;29;20050;-71
2023/03/14 06:35:18;;;;;;;22.70;2.65;;;16.00;68.90;;;;;;4810857;29;20378;-80
2023/03/14 06:37:49;;;;;;;15.60;2.70;;;16.00;68.20;;;;;;4794675;29;20447;-85
2023/03/14 06:40:17;;;;;;;26.33;2.38;;;15.70;67.50;;;;;;4793882;29;20101;-78
2023/03/14 06:42:46;;;;;;;17.05;2.90;;;15.70;69.30;;;;;;4810331;29;20450;-81
2023/03/14 06:45:13;;;;;;;21.90;2.20;;;15.80;69.30;;;;;;4810354;29;20116;-78
2023/03/14 06:47:38;;;;;;;16.48;1.95;;;15.80;69.00;;;;;;4810055;29;20038;-79
2023/03/14 06:50:06;;;;;;;13.38;2.10;;;15.80;68.30;;;;;;4810153;29;20378;-79
2023/03/14 06:52:32;;;;;;;15.75;1.85;;;15.90;67.30;;;;;;4810748;29;20051;-77
2023/03/14 06:54:57;;;;;;;23.42;2.60;;;15.90;66.90;;;;;;4809923;29;20475;-76
2023/03/14 06:57:23;;;;;;;19.75;2.33;;;15.90;66.90;;;;;;4808263;29;20111;-77
2023/03/14 06:59:49;;;;;;;24.35;2.45;;;15.90;66.90;;;;;;4809854;29;20042;-76
2023/03/14 07:02:15;;;;;;;12.82;2.38;;;16.00;66.90;;;;;;4810195;29;20203;-76
2023/03/14 07:04:40;;;;;;;21.85;2.47;;;16.10;66.90;;;;;;4810470;29;20067;-76
2023/03/14 07:07:07;;;;;;;20.75;2.30;;;16.20;66.90;;;;;;4810367;29;20058;-77
2023/03/14 07:09:33;;;;;;;14.00;1.92;;;16.20;67.00;;;;;;4810086;29;20331;-77
2023/03/14 07:11:59;;;;;;;16.60;1.85;;;16.20;66.70;;;;;;4809918;29;20050;-76
2023/03/14 07:14:25;;;;;;;18.13;1.50;;;16.20;66.20;;;;;;4809724;29;20061;-76
2023/03/14 07:16:50;;;;;;;19.25;2.13;;;16.20;65.80;;;;;;4810027;29;20122;-75
2023/03/14 07:19:16;;;;;;;11.95;1.27;;;16.10;65.50;;;;;;4810331;29;20370;-76
2023/03/14 07:21:42;;;;;;;17.10;1.40;;;16.10;65.60;;;;;;4810210;29;20367;-76
2023/03/14 07:24:08;;;;;;;19.70;2.45;;;16.00;65.60;;;;;;4809578;29;20091;-76
2023/03/14 07:26:34;;;;;;;11.23;1.63;;;16.00;65.70;;;;;;4809505;29;20055;-76
2023/03/14 07:28:59;;;;;;;10.82;1.67;;;15.90;65.70;;;;;;4810015;29;20142;-76
2023/03/14 07:31:25;;;;;;;9.07;1.08;;;15.90;65.90;;;;;;4809944;29;20061;-76
2023/03/14 07:33:51;;;;;;;11.15;1.65;;;15.80;65.90;;;;;;4809846;29;20115;-76
2023/03/14 07:36:17;;;;;;;9.52;1.00;;;15.80;66.00;;;;;;4809725;29;20039;-76
2023/03/14 07:38:42;;;;;;;15.45;1.88;;;15.70;65.90;;;;;;4809835;29;20134;-75
2023/03/14 07:41:09;;;;;;;8.35;1.50;;;15.70;65.90;;;;;;4809534;29;20062;-76
2023/03/14 07:43:34;;;;;;;6.15;0.70;;;15.60;65.90;;;;;;4807641;29;20101;-75
2023/03/14 07:46:00;;;;;;;6.68;1.13;;;15.60;66.00;;;;;;4805254;29;20074;-74
2023/03/14 07:48:27;;;;;;;10.98;1.02;;;15.50;65.90;;;;;;4809320;29;20054;-74
2023/03/14 07:50:54;;;;;;;12.38;2.05;;;15.50;66.20;;;;;;4808494;29;20058;-76
2023/03/14 07:53:20;;;;;;;14.35;2.38;;;15.40;66.40;;;;;;4810105;29;20107;-74
2023/03/14 07:55:47;;;;;;;11.27;1.60;;;15.40;66.70;;;;;;4793322;29;20158;-76
2023/03/14 07:58:13;;;;;;;14.82;1.60;;;15.30;66.80;;;;;;4789267;30;20486;-76
2023/03/14 08:00:39;;;;;;;10.68;2.05;;;15.30;67.00;;;;;;4802849;29;20125;-76
2023/03/14 08:03:05;;;;;;;12.40;2.33;;;15.30;67.20;;;;;;4791338;30;20424;-75
2023/03/14 08:05:33;;;;;;;15.13;2.72;;;15.30;67.70;;;;;;4805144;29;20050;-75
2023/03/14 08:07:59;;;;;;;17.83;2.53;;;15.30;67.60;;;;;;4808562;29;20058;-75
2023/03/14 08:10:25;;;;;;;20.88;1.98;;;15.20;67.70;;;;;;4808893;29;20051;-75
2023/03/14 08:12:54;;;;;;;16.63;2.33;;;15.20;68.00;;;;;;4808606;29;20069;-74
2023/03/14 08:15:20;;;;;;;19.00;1.85;;;15.20;68.10;;;;;;4809023;29;20050;-74
2023/03/14 08:17:50;;;;;;;17.10;2.08;;;15.20;68.10;;;;;;4809080;29;20058;-75
2023/03/14 08:20:24;;;;;;;13.18;1.60;;;15.10;68.20;;;;;;4809298;29;20059;-74
2023/03/14 08:22:50;;;;;;;8.63;1.30;;;15.10;68.30;;;;;;4807887;29;20062;-74
2023/03/14 08:25:16;;;;;;;16.45;2.28;;;15.10;68.30;;;;;;4807849;29;20483;-74
2023/03/14 08:27:42;;;;;;;10.73;1.73;;;15.10;68.00;;;;;;4809021;29;20123;-73
2023/03/14 08:30:11;;;;;;;12.20;1.60;;;15.20;67.60;;;;;;4792515;29;20047;-75
2023/03/14 08:32:37;;;;;;;10.45;2.17;;;15.20;66.50;;;;;;4808188;29;20058;-74
2023/03/14 08:35:05;;;;;;;19.65;2.40;;;15.10;66.20;;;;;;4807800;29;20047;-74
2023/03/14 08:37:34;;;;;;;17.08;2.75;;;15.10;66.80;;;;;;4797850;29;20100;-75
2023/03/14 08:40:01;;;;;;;12.93;1.10;;;15.10;67.60;;;;;;4808905;29;20055;-76
2023/03/14 08:42:32;;;;;;;11.38;1.48;;;15.20;67.60;;;;;;4777325;30;20098;-76
2023/03/14 08:44:58;;;;;;;17.08;2.25;;;15.20;67.70;;;;;;4797942;29;20110;-76
2023/03/14 08:47:24;;;;;;;14.60;1.70;;;15.30;67.30;;;;;;4808071;29;20105;-75
2023/03/14 08:49:50;;;;;;;10.07;2.45;;;15.30;67.30;;;;;;4808722;29;20050;-74
2023/03/14 08:52:16;;;;;;;12.07;2.05;;;15.40;67.40;;;;;;4808232;29;20050;-75
2023/03/14 08:54:43;;;;;;;12.18;1.88;;;15.40;67.30;;;;;;4808058;29;20125;-74
2023/03/14 08:57:09;;;;;;;12.10;1.65;;;15.40;67.30;;;;;;4807977;29;20126;-74
2023/03/14 08:59:35;;;;;;;8.05;1.50;;;15.40;66.90;;;;;;4791646;29;20531;-74
2023/03/14 09:02:12;;;;;;;7.07;1.55;;;15.40;66.50;;;;;;4788452;29;20055;-76
2023/03/14 09:04:39;;;;;;;13.07;1.60;;;15.40;66.30;;;;;;4789535;29;20100;-76
2023/03/14 09:07:05;;;;;;;10.38;1.33;;;15.30;66.60;;;;;;4807348;29;20057;-74
2023/03/14 09:09:31;;;;;;;12.10;1.50;;;15.30;66.60;;;;;;4805107;29;20062;-75
2023/03/14 09:11:57;;;;;;;8.52;1.30;;;15.30;66.50;;;;;;4807463;29;20066;-74
2023/03/14 09:14:23;;;;;;;10.30;1.95;;;15.20;66.40;;;;;;4796077;29;20047;-74
2023/03/14 09:16:50;;;;;;;7.43;1.38;;;15.20;66.50;;;;;;4800494;29;20504;-73
2023/03/14 09:19:16;;;;;;;8.20;1.13;;;15.10;66.50;;;;;;4805272;29;20130;-75
2023/03/14 09:21:42;;;;;;;9.95;1.63;;;15.10;66.60;;;;;;4805587;29;20074;-74
2023/03/14 09:24:07;;;;;;;5.65;1.50;;;15.10;67.20;;;;;;4807971;29;20055;-73
2023/03/14 09:26:33;;;;;;;6.97;1.23;;;15.10;67.70;;;;;;4808127;29;20057;-72
2023/03/14 09:28:59;;;;;;;6.32;1.27;;;15.10;67.60;;;;;;4807902;29;20078;-75
2023/03/14 09:31:24;;;;;;;14.85;1.85;;;15.20;67.20;;;;;;4807866;29;20455;-75
2023/03/14 09:33:50;;;;;;;4.90;1.33;;;15.20;67.20;;;;;;4807768;29;20051;-74
2023/03/14 09:36:16;;;;;;;6.40;1.30;;;15.20;67.10;;;;;;4808383;29;20054;-74
2023/03/14 09:38:42;;;;;;;6.95;1.20;;;15.20;66.80;;;;;;4808076;29;20050;-77
2023/03/14 09:41:32;;;;;;;8.38;1.38;;;15.20;66.60;;;;;;4807929;29;20420;-77
2023/03/14 09:44:19;;;;;;;9.57;1.17;;;15.20;66.30;;;;;;4807579;29;20101;-73
2023/03/14 09:46:49;;;;;;;6.70;1.17;;;15.20;66.30;;;;;;4791825;29;20167;-72
2023/03/14 09:49:23;;;;;;;5.60;1.40;;;15.20;66.20;;;;;;4808125;29;20050;-72
2023/03/14 09:51:52;;;;;;;7.53;1.58;;;15.20;66.10;;;;;;4805704;29;20486;-75
2023/03/14 09:54:32;;;;;;;13.57;2.03;;;15.20;66.10;;;;;;4791766;29;20062;-74
2023/03/14 09:56:58;;;;;;;14.55;2.50;;;15.20;64.50;;;;;;4807488;29;20446;-75
2023/03/14 09:59:24;;;;;;;11.73;2.33;;;15.10;61.70;;;;;;4788886;29;20112;-76
2023/03/14 10:01:50;;;;;;;10.57;2.13;;;15.00;60.00;;;;;;4808111;29;20451;-76
2023/03/14 10:04:22;;;;;;;12.02;2.33;;;15.00;59.60;;;;;;4807887;29;20129;-77
2023/03/14 10:06:48;;;;;;;8.77;1.40;;;14.90;60.80;;;;;;4807252;29;20455;-76
2023/03/14 10:09:25;;;;;;;8.82;2.17;;;14.80;60.90;;;;;;4791090;29;20150;-76
2023/03/14 10:11:56;;;;;;;8.93;1.73;;;14.90;60.70;;;;;;4792272;29;20058;-77
2023/03/14 10:14:34;;;;;;;13.68;1.92;;;15.00;60.80;;;;;;4807573;29;20130;-77
2023/03/14 10:17:12;;;;;;;9.93;1.52;;;15.10;60.90;;;;;;4807104;29;20047;-78
2023/03/14 10:19:51;;;;;;;7.15;1.80;;;15.20;61.20;;;;;;4807000;29;20050;-76
2023/03/14 10:22:17;;;;;;;8.25;1.42;;;15.40;61.30;;;;;;4807265;29;20118;-75
2023/03/14 10:24:52;;;;;;;6.72;1.70;;;15.40;61.50;;;;;;4807128;29;20415;-77
2023/03/14 10:27:27;;;;;;;6.03;1.27;;;15.50;61.80;;;;;;4804036;29;20055;-79
2023/03/14 10:29:56;;;;;;;7.30;1.80;;;15.50;61.90;;;;;;4806950;29;20463;-77
2023/03/14 10:32:31;;;;;;;13.40;2.00;;;15.50;62.00;;;;;;4809902;29;20375;-77
2023/03/14 10:35:19;;;;;;;7.22;1.77;;;15.50;62.20;;;;;;4810827;29;20066;-78
2023/03/14 10:38:04;;;;;;;12.75;2.05;;;15.50;62.50;;;;;;4795080;29;20059;-77
2023/03/14 10:40:31;;;;;;;9.38;1.75;;;15.50;61.50;;;;;;4810509;29;20126;-77
2023/03/14 10:43:03;;;;;;;13.48;1.90;;;15.50;60.70;;;;;;4809888;29;20047;-78
2023/03/14 10:45:51;;;;;;;8.75;2.08;;;15.50;60.40;;;;;;4810244;29;20378;-78
2023/03/14 10:48:35;;;;;;;10.38;1.63;;;15.60;60.50;;;;;;4810638;29;20167;-77
2023/03/14 10:51:11;;;;;;;6.40;1.73;;;15.60;60.60;;;;;;4810392;29;20363;-78
2023/03/14 10:53:59;;;;;;;11.93;1.92;;;15.70;60.80;;;;;;4810471;29;20058;-78
2023/03/14 10:56:26;;;;;;;10.80;1.55;;;15.80;60.80;;;;;;4810485;29;20130;-77
2023/03/14 10:58:56;;;;;;;10.70;1.48;;;15.90;60.70;;;;;;4810343;29;20411;-78
2023/03/14 11:01:50;;;;;;;8.40;1.55;;;16.00;60.60;;;;;;4810779;29;20055;-78
2023/03/14 11:04:15;;;;;;;7.43;0.95;;;16.10;60.40;;;;;;4809837;29;20054;-79
2023/03/14 11:06:47;;;;;;;6.97;1.20;;;16.20;60.60;;;;;;4810182;29;20139;-76
2023/03/14 11:09:37;;;;;;;7.78;1.30;;;16.20;60.70;;;;;;4810323;29;20428;-76
2023/03/14 11:12:41;;;;;;;7.95;1.45;;;16.20;60.70;;;;;;4810719;29;20058;-77
2023/03/14 11:15:20;;;;;;;7.97;1.40;;;16.30;60.50;;;;;;4810285;29;20351;-77
2023/03/14 11:17:52;;;;;;;6.07;1.02;;;16.40;60.50;;;;;;4810642;29;20462;-77
2023/03/14 11:20:30;;;;;;;6.13;0.77;;;16.40;60.50;;;;;;4810030;29;20062;-76
2023/03/14 11:23:09;;;;;;;5.68;0.82;;;16.40;60.60;;;;;;4810364;29;20063;-77
2023/03/14 11:25:53;;;;;;;5.43;0.95;;;16.30;60.60;;;;;;4809938;29;20051;-77
2023/03/14 11:28:29;;;;;;;3.85;1.20;;;16.30;60.80;;;;;;4809728;29;20058;-77
2023/03/14 11:31:14;;;;;;;5.22;1.15;;;16.30;60.80;;;;;;4809942;29;20054;-78
2023/03/14 11:33:58;;;;;;;5.65;0.95;;;16.30;60.80;;;;;;4809276;29;20043;-77
2023/03/14 11:36:39;;;;;;;4.35;0.90;;;16.30;60.90;;;;;;4809746;29;20062;-78
2023/03/14 11:39:16;;;;;;;7.90;1.77;;;16.30;60.50;;;;;;4809230;29;20130;-76
2023/03/14 11:41:52;;;;;;;8.68;1.38;;;16.20;60.00;;;;;;4799940;29;20150;-77
2023/03/14 11:44:23;;;;;;;3.78;0.90;;;16.20;59.90;;;;;;4795213;29;20055;-76
2023/03/14 11:46:59;;;;;;;9.10;1.63;;;16.20;60.80;;;;;;4791808;30;20127;-79
2023/03/14 11:49:43;;;;;;;3.95;1.10;;;16.20;60.30;;;;;;4791264;30;20066;-77
2023/03/14 11:52:37;;;;;;;5.95;1.25;;;16.20;60.40;;;;;;4804754;29;20127;-73
2023/03/14 11:55:03;;;;;;;;;;;16.20;60.80;;;;;;4807280;29;20204;-76
2023/03/14 11:57:29;;;;;;;8.27;1.40;;;16.20;60.90;;;;;;4809114;29;20023;-77
2023/03/14 12:00:07;;;;;;;7.70;1.20;;;16.20;61.30;;;;;;4809251;29;20069;-75
2023/03/14 12:02:45;;;;;;;9.45;1.40;;;16.20;61.20;;;;;;4809280;29;20066;-74
2023/03/14 12:05:17;;;;;;;6.50;1.10;;;16.30;61.30;;;;;;4809054;29;20055;-76
2023/03/14 12:07:59;;;;;;;11.20;1.30;;;16.30;61.60;;;;;;4809844;29;20046;-74
2023/03/14 12:10:25;;;;;;;9.75;1.00;;;16.30;62.00;;;;;;4809435;29;20054;-74
2023/03/14 12:12:50;;;;;;;8.27;1.73;;;16.30;62.20;;;;;;4809004;29;20424;-74
2023/03/14 12:15:22;;;;;;;5.70;1.20;;;16.20;62.40;;;;;;4808807;29;20046;-74
2023/03/14 12:17:54;;;;;;;7.03;1.50;;;16.20;62.70;;;;;;4808816;29;20043;-75
2023/03/14 12:20:22;;;;;;;6.45;0.90;;;16.20;62.90;;;;;;4808893;29;20375;-74
2023/03/14 12:22:51;;;;;;;3.95;0.65;;;16.20;63.00;;;;;;4808158;29;20557;-76
2023/03/14 12:25:19;;;;;;;6.30;1.15;;;16.20;63.70;;;;;;4809037;29;20182;-76
2023/03/14 12:27:56;;;;;;;3.03;0.77;;;16.20;63.20;;;;;;4809153;29;20101;-74
2023/03/14 12:30:32;;;;;;;2.47;0.75;;;16.20;63.30;;;;;;4808952;29;20477;-75
2023/03/14 12:33:29;;;;;;;5.43;1.08;;;16.20;63.20;;;;;;4808764;29;20055;-74
2023/03/14 12:36:04;;;;;;;5.30;0.85;;;16.20;62.10;;;;;;4808980;29;20046;-76
2023/03/14 12:38:48;;;;;;;5.65;0.90;;;16.20;62.70;;;;;;4808625;29;20367;-75
2023/03/14 12:41:22;;;;;;;4.25;0.73;;;16.20;62.60;;;;;;4809255;29;20105;-74
2023/03/14 12:43:48;;;;;;;5.72;0.98;;;16.10;61.50;;;;;;4808656;29;20155;-75
2023/03/14 12:46:17;;;;;;;4.13;0.80;;;16.10;62.40;;;;;;4808814;29;20505;-73
2023/03/14 12:48:54;;;;;;;4.05;1.10;;;16.10;62.70;;;;;;4808675;29;20450;-75
2023/03/14 12:51:30;;;;;;;5.47;1.10;;;16.20;62.80;;;;;;4789501;29;20077;-75
2023/03/14 12:54:35;;;;;;;5.57;0.63;;;16.20;62.30;;;;;;4804148;29;20059;-74
2023/03/14 12:57:35;;;;;;;7.03;1.60;;;16.10;58.50;;;;;;4808247;29;20058;-75
2023/03/14 13:00:16;;;;;;;4.47;0.95;;;16.10;56.70;;;;;;4808265;29;20062;-76
2023/03/14 13:02:43;;;;;;;4.80;0.70;;;16.10;56.60;;;;;;4808286;29;20129;-74
2023/03/14 13:05:27;;;;;;;5.75;1.13;;;16.00;56.20;;;;;;4808131;29;20599;-76
2023/03/14 13:07:59;;;;;;;5.93;1.13;;;16.00;56.10;;;;;;4808577;29;20057;-75
2023/03/14 13:10:30;;;;;;;4.82;0.90;;;16.00;56.90;;;;;;4808806;29;20457;-74
2023/03/14 13:13:01;;;;;;;2.60;0.60;;;15.90;57.20;;;;;;4808084;29;20055;-74
2023/03/14 13:15:31;;;;;;;4.70;0.93;;;15.90;57.70;;;;;;4808034;29;20054;-75
2023/03/14 13:18:16;;;;;;;3.88;0.60;;;15.80;57.90;;;;;;4791650;29;20534;-76
2023/03/14 13:20:49;;;;;;;5.93;1.00;;;15.80;58.10;;;;;;4807765;29;20054;-75
2023/03/14 13:23:23;;;;;;;5.88;1.00;;;15.80;58.50;;;;;;4807494;29;20110;-75
2023/03/14 13:25:49;;;;;;;4.68;1.17;;;15.70;58.70;;;;;;4807453;29;20057;-74
2023/03/14 13:28:16;;;;;;;5.95;1.08;;;15.70;59.10;;;;;;4808103;29;20477;-75
2023/03/14 13:30:44;;;;;;;6.18;1.00;;;15.70;59.30;;;;;;4808076;29;20047;-75
2023/03/14 13:33:16;;;;;;;4.28;1.02;;;15.60;59.40;;;;;;4807984;29;20474;-74
2023/03/14 13:35:48;;;;;;;5.47;0.90;;;15.60;59.50;;;;;;4808039;29;20058;-75
2023/03/14 13:38:20;;;;;;;5.10;1.25;;;15.60;59.70;;;;;;4807927;29;20532;-75
2023/03/14 13:40:47;;;;;;;4.55;0.90;;;15.60;59.80;;;;;;4788685;30;20055;-75
2023/03/14 13:43:43;;;;;;;4.68;0.82;;;15.60;60.10;;;;;;4791220;29;20455;-77
2023/03/14 13:46:19;;;;;;;11.93;1.90;;;15.60;60.00;;;;;;4807878;29;20149;-75
2023/03/14 13:48:48;;;;;;;11.05;1.40;;;15.60;60.30;;;;;;4804594;29;20043;-74
2023/03/14 13:51:17;;;;;;;13.20;1.55;;;15.60;60.50;;;;;;4798538;29;20063;-74
2023/03/14 13:53:49;;;;;;;17.60;2.05;;;15.60;60.80;;;;;;4792118;29;20055;-75
2023/03/14 13:56:17;;;;;;;10.27;1.70;;;15.60;61.20;;;;;;4805776;29;20062;-76
2023/03/14 13:58:43;;;;;;;18.60;2.10;;;15.60;61.70;;;;;;4774494;29;20051;-75
2023/03/14 14:01:17;;;;;;;15.60;1.80;;;15.60;62.10;;;;;;4788787;29;20061;-76
2023/03/14 14:03:47;;;;;;;13.43;2.05;;;15.60;61.70;;;;;;4790830;29;20063;-73
2023/03/14 14:06:32;;;;;;;15.40;2.22;;;15.60;61.50;;;;;;4787642;29;20038;-75
2023/03/14 14:09:14;;;;;;;14.63;2.25;;;15.60;60.50;;;;;;4794925;29;20458;-74
2023/03/14 14:12:05;;;;;;;15.48;1.75;;;15.60;59.60;;;;;;4810552;29;20116;-74
2023/03/14 14:14:53;;;;;;;14.52;1.75;;;15.60;59.40;;;;;;4811282;29;20050;-76
2023/03/14 14:17:27;;;;;;;16.02;1.85;;;15.50;59.50;;;;;;4810745;29;20055;-77
2023/03/14 14:19:54;;;;;;;9.55;2.40;;;15.50;59.80;;;;;;4800965;29;20077;-77
2023/03/14 14:22:20;;;;;;;12.55;2.58;;;15.50;60.80;;;;;;4802094;29;20054;-76
2023/03/14 14:24:47;;;;;;;15.32;2.20;;;15.50;60.50;;;;;;4800859;29;20065;-75
2023/03/14 14:27:21;;;;;;;8.90;1.58;;;15.50;61.00;;;;;;4801124;29;20034;-77
2023/03/14 14:29:58;;;;;;;9.40;1.65;;;15.40;61.20;;;;;;4799696;29;20055;-76
2023/03/14 14:32:24;;;;;;;8.68;1.70;;;15.40;60.70;;;;;;4798214;29;20436;-76
2023/03/14 14:34:57;;;;;;;11.10;1.27;;;15.40;61.00;;;;;;4792615;29;20106;-78
2023/03/14 14:37:25;;;;;;;5.93;1.52;;;15.40;61.10;;;;;;4793449;30;20102;-76
2023/03/14 14:39:53;;;;;;;15.68;1.48;;;15.40;61.40;;;;;;4792725;30;20118;-79
2023/03/14 14:42:24;;;;;;;8.82;2.50;;;15.40;61.70;;;;;;4776502;30;20077;-79
2023/03/14 14:44:52;;;;;;;11.00;3.22;;;15.30;62.40;;;;;;4794287;29;20039;-77
2023/03/14 14:47:23;;;;;;;10.02;2.55;;;15.40;62.90;;;;;;4792299;30;20043;-78
2023/03/14 14:49:51;;;;;;;13.52;3.92;;;15.40;63.10;;;;;;4792651;29;20054;-78
2023/03/14 14:52:30;;;;;;;14.48;4.20;;;15.40;63.60;;;;;;4770347;29;20119;-79
2023/03/14 14:55:37;;;;;;;11.25;4.03;;;15.40;64.10;;;;;;4801075;29;20047;-78
2023/03/14 14:58:38;;;;;;;10.00;4.93;;;15.40;64.00;;;;;;4779697;29;20109;-80
2023/03/14 15:01:41;;;;;;;13.02;4.15;;;15.40;64.70;;;;;;4794591;29;20047;-79
2023/03/14 15:04:13;;;;;;;11.23;3.67;;;15.40;65.00;;;;;;4778685;29;20463;-78
2023/03/14 15:06:41;;;;;;;8.95;2.97;;;15.30;64.90;;;;;;4789523;29;20046;-77
2023/03/14 15:09:10;;;;;;;11.60;3.40;;;15.40;64.70;;;;;;4810217;29;20046;-79
2023/03/14 15:11:36;;;;;;;9.38;3.05;;;15.40;64.50;;;;;;4809603;29;20522;-77
2023/03/14 15:14:03;;;;;;;9.02;2.50;;;15.30;64.00;;;;;;4809216;29;20138;-78
2023/03/14 15:16:31;;;;;;;8.80;2.72;;;15.30;63.80;;;;;;4809784;29;20203;-78
2023/03/14 15:19:05;;;;;;;8.27;2.88;;;15.30;63.70;;;;;;4809036;29;20054;-80
2023/03/14 15:21:32;;;;;;;15.25;3.53;;;15.30;63.90;;;;;;4810284;29;20061;-74
2023/03/14 15:23:58;;;;;;;11.45;2.20;;;15.30;63.10;;;;;;4793483;29;20067;-76
2023/03/14 15:26:26;;;;;;;11.98;2.30;;;15.30;62.50;;;;;;4810401;29;20191;-81
2023/03/14 15:28:52;;;;;;;18.38;3.03;;;15.30;60.80;;;;;;4793599;29;20054;-77
2023/03/14 15:31:20;;;;;;;8.88;1.95;;;15.30;60.30;;;;;;4809829;29;20046;-76
2023/03/14 15:33:47;;;;;;;19.20;3.03;;;15.50;59.50;;;;;;4810068;29;20118;-76
2023/03/14 15:36:26;;;;;;;13.32;1.85;;;15.70;60.00;;;;;;4809563;29;20107;-80
2023/03/14 15:38:52;;;;;;;14.50;2.22;;;15.80;58.30;;;;;;4807938;29;20055;-78
2023/03/14 15:41:19;;;;;;;11.63;2.30;;;15.90;58.10;;;;;;4809137;29;20082;-76
2023/03/14 15:43:49;;;;;;;11.25;2.33;;;16.00;59.00;;;;;;4809742;29;20376;-75
2023/03/14 15:46:16;;;;;;;10.90;1.83;;;16.10;59.80;;;;;;4809624;29;20138;-76
2023/03/14 15:48:43;;;;;;;13.38;2.38;;;16.10;60.80;;;;;;4809735;29;20043;-76
2023/03/14 15:51:09;;;;;;;10.98;2.00;;;16.10;60.20;;;;;;4809476;29;20086;-76
2023/03/14 15:53:36;;;;;;;16.13;2.35;;;16.20;60.70;;;;;;4809393;29;20093;-75
2023/03/14 15:56:07;;;;;;;10.55;2.15;;;16.20;60.60;;;;;;4809258;29;20459;-74
2023/03/14 15:58:33;;;;;;;9.65;1.92;;;16.20;60.90;;;;;;4809288;29;20089;-75
2023/03/14 16:01:08;;;;;;;12.38;2.38;;;16.20;62.00;;;;;;4809405;29;20043;-76
2023/03/14 16:03:34;;;;;;;12.07;2.10;;;16.10;62.50;;;;;;4809236;29;20082;-79
2023/03/14 16:06:03;;;;;;;10.93;2.08;;;16.00;63.30;;;;;;4809016;29;20065;-78
2023/03/14 16:08:29;;;;;;;10.85;2.13;;;16.10;64.70;;;;;;4809220;29;20054;-76
2023/03/14 16:10:58;;;;;;;13.55;3.08;;;16.00;64.60;;;;;;4808943;29;20066;-76
2023/03/14 16:13:23;;;;;;;9.45;2.25;;;16.00;64.50;;;;;;4808956;29;20055;-79
2023/03/14 16:15:57;;;;;;;10.30;2.05;;;16.00;64.10;;;;;;4809189;29;20051;-75
2023/03/14 16:18:23;;;;;;;8.45;1.67;;;15.90;63.90;;;;;;4808801;29;20051;-77
2023/03/14 16:20:54;;;;;;;6.95;2.00;;;15.90;63.70;;;;;;4809283;29;20055;-76
2023/03/14 16:23:20;;;;;;;8.65;1.92;;;15.90;63.60;;;;;;4792648;29;20059;-75
2023/03/14 16:25:45;;;;;;;11.65;2.03;;;15.90;63.90;;;;;;4808790;29;20081;-77
2023/03/14 16:28:11;;;;;;;10.27;2.00;;;15.90;64.10;;;;;;4806243;29;20168;-78
2023/03/14 16:30:46;;;;;;;8.00;1.83;;;15.80;64.50;;;;;;4808331;29;20054;-76
2023/03/14 16:33:13;;;;;;;10.20;3.15;;;15.80;64.50;;;;;;4808593;29;20047;-76
2023/03/14 16:35:39;;;;;;;11.48;1.73;;;15.80;64.40;;;;;;4792380;29;20478;-75
2023/03/14 16:38:05;;;;;;;8.35;1.60;;;15.70;64.40;;;;;;4808487;29;20039;-76
2023/03/14 16:40:31;;;;;;;5.70;1.40;;;15.70;64.50;;;;;;4808796;29;20050;-75
2023/03/14 16:42:57;;;;;;;7.63;2.20;;;15.70;65.20;;;;;;4808418;29;20470;-78
2023/03/14 16:45:23;;;;;;;16.13;2.78;;;15.70;66.00;;;;;;4796729;29;20188;-76
2023/03/14 16:47:48;;;;;;;16.17;2.72;;;15.70;66.40;;;;;;4800942;29;20043;-75
2023/03/14 16:50:14;;;;;;;15.35;2.45;;;15.70;67.10;;;;;;4808317;29;20050;-75
2023/03/14 16:52:40;;;;;;;22.42;3.90;;;15.80;67.40;;;;;;4808234;29;20061;-74
2023/03/14 16:55:07;;;;;;;17.52;3.45;;;15.80;67.80;;;;;;4808324;29;20130;-74
2023/03/14 16:57:33;;;;;;;16.92;3.30;;;15.80;68.50;;;;;;4808407;29;20104;-74
2023/03/14 16:59:59;;;;;;;14.30;3.13;;;15.80;69.50;;;;;;4807648;29;20055;-74
2023/03/14 17:02:25;;;;;;;25.52;4.38;;;15.70;69.80;;;;;;4807788;29;20062;-74
2023/03/14 17:04:50;;;;;;;17.55;2.72;;;15.70;70.60;;;;;;4808350;29;20054;-79
2023/03/14 17:07:16;;;;;;;27.27;3.58;;;15.70;71.50;;;;;;4792715;29;20479;-75
2023/03/14 17:09:42;;;;;;;19.77;2.90;;;15.70;71.60;;;;;;4805072;29;20061;-74
2023/03/14 17:12:07;;;;;;;19.73;3.53;;;15.60;71.80;;;;;;4806499;29;20047;-76
2023/03/14 17:14:33;;;;;;;19.65;2.90;;;15.60;71.90;;;;;;4807390;29;20069;-76
2023/03/14 17:16:59;;;;;;;22.83;3.08;;;15.60;71.70;;;;;;4806961;29;20125;-75
2023/03/14 17:19:25;;;;;;;15.02;2.50;;;15.60;71.60;;;;;;4807965;29;20073;-75
2023/03/14 17:21:50;;;;;;;20.27;3.40;;;15.60;71.30;;;;;;4796872;29;20052;-75
2023/03/14 17:24:17;;;;;;;24.80;3.67;;;15.60;71.20;;;;;;4791810;29;20493;-76
2023/03/14 17:26:43;;;;;;;19.48;3.10;;;15.50;71.20;;;;;;4791449;29;20130;-75
2023/03/14 17:29:09;;;;;;;22.10;3.22;;;15.50;71.20;;;;;;4807877;29;20063;-75
2023/03/14 17:31:34;;;;;;;19.35;2.72;;;15.50;71.10;;;;;;4807735;29;20043;-75
2023/03/14 17:34:00;;;;;;;13.70;2.85;;;15.50;70.80;;;;;;4798378;29;20459;-75
2023/03/14 17:36:29;;;;;;;10.30;2.00;;;15.50;69.80;;;;;;4781368;29;20482;-75
2023/03/14 17:38:56;;;;;;;8.43;1.60;;;15.50;66.30;;;;;;4803340;29;20047;-75
2023/03/14 17:41:22;;;;;;;10.38;2.25;;;15.50;62.50;;;;;;4813071;29;20047;-75
2023/03/14 17:43:48;;;;;;;15.52;2.40;;;15.50;61.10;;;;;;4813658;29;20050;-74
2023/03/14 17:46:15;;;;;;;18.30;2.05;;;15.40;61.80;;;;;;4813590;29;20142;-75
2023/03/14 17:48:43;;;;;;;24.75;3.10;;;15.40;62.10;;;;;;4792466;30;20454;-75
2023/03/14 17:51:10;;;;;;;18.83;2.80;;;15.40;62.30;;;;;;4806722;29;20122;-76
2023/03/14 17:53:36;;;;;;;26.67;3.83;;;15.40;62.50;;;;;;4813328;29;20059;-76
2023/03/14 17:56:02;;;;;;;25.15;3.35;;;15.30;63.00;;;;;;4813499;29;20528;-79
2023/03/14 17:58:29;;;;;;;31.67;5.25;;;15.40;64.00;;;;;;4798259;29;20058;-74
2023/03/14 18:00:55;;;;;;;31.58;4.53;;;15.40;64.20;;;;;;4813553;29;20055;-75
2023/03/14 18:03:21;;;;;;;21.25;4.18;;;15.30;64.10;;;;;;4813700;29;20056;-75
2023/03/14 18:05:47;;;;;;;31.17;3.35;;;15.30;64.10;;;;;;4813524;29;20063;-75
2023/03/14 18:08:14;;;;;;;18.42;3.03;;;15.30;64.10;;;;;;4813880;29;20074;-76
2023/03/14 18:10:40;;;;;;;23.20;3.38;;;15.30;64.20;;;;;;4797848;29;20065;-76
2023/03/14 18:13:06;;;;;;;15.35;2.47;;;15.30;64.20;;;;;;4797961;29;20055;-75
2023/03/14 18:15:32;;;;;;;16.60;2.17;;;15.30;64.30;;;;;;4813601;29;20131;-76
2023/03/14 18:18:00;;;;;;;14.02;1.95;;;15.30;64.40;;;;;;4812780;29;20471;-76